createdAt,value
2019-04-10T00:02:26.046Z,24.30
2019-04-10T00:04:57.864Z,26.40
2019-04-10T00:07:29.763Z,33.58
2019-04-10T00:10:03.472Z,29.67
2019-04-10T00:12:35.980Z,29.60
2019-04-10T00:15:09.283Z,32.50
2019-04-10T00:17:42.930Z,36.13
2019-04-10T00:20:16.270Z,42.10
2019-04-10T00:22:48.661Z,49.35
2019-04-10T00:25:20.939Z,52.35
2019-04-10T00:27:52.752Z,57.38
2019-04-10T00:30:25.062Z,50.40
2019-04-10T00:32:56.853Z,48.13
2019-04-10T00:35:29.718Z,49.13
2019-04-10T00:38:01.736Z,57.33
2019-04-10T00:40:33.465Z,42.90
2019-04-10T00:43:06.511Z,60.20
2019-04-10T00:45:38.458Z,50.40
2019-04-10T00:48:10.377Z,53.92
2019-04-10T00:50:42.515Z,57.43
2019-04-10T00:53:14.395Z,59.50
2019-04-10T00:55:46.195Z,56.45
2019-04-10T00:58:18.331Z,49.58
2019-04-10T01:00:50.449Z,55.80
2019-04-10T01:03:40.689Z,56.20
2019-04-10T01:06:14.279Z,54.65
2019-04-10T01:08:45.944Z,50.65
2019-04-10T01:11:18.990Z,53.13
2019-04-10T01:13:51.690Z,52.73
2019-04-10T01:16:23.571Z,53.40
2019-04-10T01:18:55.523Z,61.28
2019-04-10T01:21:28.447Z,63.50
2019-04-10T01:24:01.465Z,54.42
2019-04-10T01:26:33.255Z,42.13
2019-04-10T01:29:05.219Z,62.35
2019-04-10T01:31:37.289Z,48.50
2019-04-10T01:34:09.469Z,52.35
2019-04-10T01:36:41.480Z,45.45
2019-04-10T01:39:15.875Z,59.08
2019-04-10T01:41:48.059Z,96.55
2019-04-10T01:44:20.512Z,102.17
2019-04-10T01:46:52.958Z,87.50
2019-04-10T01:49:24.702Z,79.35
2019-04-10T01:51:57.429Z,80.97
2019-04-10T01:54:29.148Z,67.80
2019-04-10T01:57:00.853Z,62.70
2019-04-10T01:59:34.155Z,66.95
2019-04-10T02:02:07.500Z,57.30
2019-04-10T02:04:39.624Z,49.48
2019-04-10T02:07:11.617Z,62.95
2019-04-10T02:09:43.566Z,53.45
2019-04-10T02:12:16.660Z,44.45
2019-04-10T02:14:48.841Z,54.77
2019-04-10T02:17:20.647Z,37.85
2019-04-10T02:19:52.239Z,48.70
2019-04-10T02:22:24.924Z,48.00
2019-04-10T02:24:57.658Z,41.28
2019-04-10T02:27:30.109Z,39.95
2019-04-10T02:30:02.411Z,35.92
2019-04-10T02:32:34.543Z,37.48
2019-04-10T02:35:10.548Z,33.63
2019-04-10T02:37:41.729Z,35.40
2019-04-10T02:40:15.053Z,42.30
2019-04-10T02:42:47.444Z,41.55
2019-04-10T02:45:19.487Z,49.25
2019-04-10T02:47:52.772Z,43.58
2019-04-10T02:50:25.268Z,61.40
2019-04-10T02:52:59.061Z,55.17
2019-04-10T02:55:31.377Z,52.25
2019-04-10T02:58:03.146Z,45.43
2019-04-10T03:00:36.017Z,53.80
2019-04-10T03:03:09.351Z,60.55
2019-04-10T03:05:42.609Z,53.85
2019-04-10T03:08:15.812Z,63.87
2019-04-10T03:10:53.728Z,61.42
2019-04-10T03:13:21.856Z,53.05
2019-04-10T03:15:53.697Z,59.27
2019-04-10T03:18:25.904Z,72.20
2019-04-10T03:20:58.448Z,58.65
2019-04-10T03:23:31.625Z,70.85
2019-04-10T03:26:03.596Z,63.40
2019-04-10T03:28:35.546Z,77.58
2019-04-10T03:31:07.979Z,70.12
2019-04-10T03:33:47.444Z,55.45
2019-04-10T03:36:19.096Z,55.90
2019-04-10T03:38:58.554Z,63.40
2019-04-10T03:41:24.149Z,59.38
2019-04-10T03:43:56.405Z,65.17
2019-04-10T03:46:28.257Z,65.17
2019-04-10T03:49:01.154Z,53.87
2019-04-10T03:51:32.988Z,59.27
2019-04-10T03:54:04.990Z,60.75
2019-04-10T03:56:38.064Z,84.15
2019-04-10T03:59:09.796Z,53.92
2019-04-10T04:01:42.978Z,60.33
2019-04-10T04:04:17.514Z,51.98
2019-04-10T04:06:53.603Z,56.50
2019-04-10T04:09:29.381Z,60.78
2019-04-10T04:12:02.386Z,54.80
2019-04-10T04:14:34.688Z,56.55
2019-04-10T04:17:06.735Z,72.80
2019-04-10T04:19:38.389Z,83.00
2019-04-10T04:22:10.526Z,73.33
2019-04-10T04:24:42.355Z,67.85
2019-04-10T04:27:15.306Z,117.03
2019-04-10T04:29:47.529Z,107.25
2019-04-10T04:32:19.671Z,60.33
2019-04-10T04:34:52.166Z,79.77
2019-04-10T04:37:25.769Z,121.95
2019-04-10T04:39:58.355Z,73.28
2019-04-10T04:42:30.713Z,75.60
2019-04-10T04:45:03.087Z,75.90
2019-04-10T04:47:35.649Z,82.65
2019-04-10T04:50:07.779Z,90.42
2019-04-10T04:52:39.548Z,102.62
2019-04-10T04:55:12.233Z,95.53
2019-04-10T04:57:44.967Z,99.75
2019-04-10T05:00:17.452Z,90.92
2019-04-10T05:02:49.631Z,90.45
2019-04-10T05:05:21.494Z,76.00
2019-04-10T05:07:59.273Z,102.45
2019-04-10T05:10:26.559Z,108.35
2019-04-10T05:12:58.612Z,93.87
2019-04-10T05:15:31.094Z,110.92
2019-04-10T05:18:04.061Z,94.13
2019-04-10T05:20:44.226Z,103.60
2019-04-10T05:23:10.273Z,101.72
2019-04-10T05:25:42.008Z,111.45
2019-04-10T05:28:13.670Z,104.05
2019-04-10T05:30:45.522Z,109.10
2019-04-10T05:33:17.381Z,111.95
2019-04-10T05:35:49.351Z,112.57
2019-04-10T05:38:21.509Z,104.87
2019-04-10T05:40:53.171Z,114.77
2019-04-10T05:43:26.006Z,109.20
2019-04-10T05:45:57.601Z,114.03
2019-04-10T05:48:29.662Z,109.30
2019-04-10T05:51:05.635Z,93.27
2019-04-10T05:53:35.143Z,113.40
2019-04-10T05:56:07.090Z,117.70
2019-04-10T05:58:39.058Z,104.03
2019-04-10T06:01:11.543Z,89.77
2019-04-10T06:03:43.572Z,82.37
2019-04-10T06:06:15.156Z,102.85
2019-04-10T06:08:47.058Z,90.30
2019-04-10T06:11:18.865Z,103.80
2019-04-10T06:13:50.822Z,104.17
2019-04-10T06:16:22.479Z,116.53
2019-04-10T06:18:55.539Z,118.22
2019-04-10T06:21:28.482Z,114.92
2019-04-10T06:24:00.412Z,109.12
2019-04-10T06:26:32.721Z,94.32
2019-04-10T06:29:06.798Z,86.32
2019-04-10T06:31:39.074Z,79.45
2019-04-10T06:34:13.824Z,84.00
2019-04-10T06:36:44.434Z,71.60
2019-04-10T06:39:16.609Z,64.07
2019-04-10T06:41:48.781Z,75.65
2019-04-10T06:44:21.777Z,74.03
2019-04-10T06:46:54.975Z,62.33
2019-04-10T06:49:26.968Z,67.90
2019-04-10T06:51:59.686Z,70.90
2019-04-10T06:54:31.451Z,34.75
2019-04-10T06:57:03.089Z,51.18
2019-04-10T06:59:34.967Z,41.45
2019-04-10T07:02:17.707Z,60.78
2019-04-10T07:04:45.986Z,46.18
2019-04-10T07:07:18.122Z,42.15
2019-04-10T07:09:49.602Z,42.48
2019-04-10T07:12:24.405Z,35.30
2019-04-10T07:14:58.201Z,36.40
2019-04-10T07:17:29.439Z,43.58
2019-04-10T07:20:01.985Z,25.15
2019-04-10T07:22:33.669Z,44.40
2019-04-10T07:25:09.307Z,39.15
2019-04-10T07:27:41.458Z,38.55
2019-04-10T07:30:14.885Z,30.27
2019-04-10T07:32:49.012Z,32.98
2019-04-10T07:35:21.812Z,20.48
2019-04-10T07:37:56.682Z,21.93
2019-04-10T07:40:37.165Z,27.93
2019-04-10T07:43:09.069Z,19.00
2019-04-10T07:45:41.614Z,22.22
2019-04-10T07:48:13.358Z,16.42
2019-04-10T07:50:46.971Z,23.57
2019-04-10T07:53:18.939Z,27.05
2019-04-10T07:56:02.321Z,27.80
2019-04-10T07:58:24.076Z,28.57
2019-04-10T08:00:56.759Z,34.20
2019-04-10T08:03:28.848Z,32.88
2019-04-10T08:06:02.303Z,33.15
2019-04-10T08:08:34.131Z,48.95
2019-04-10T08:11:07.166Z,35.25
2019-04-10T08:13:38.841Z,40.40
2019-04-10T08:16:10.690Z,30.10
2019-04-10T08:18:43.474Z,44.70
2019-04-10T08:21:15.610Z,38.88
2019-04-10T08:23:48.508Z,25.23
2019-04-10T08:26:21.349Z,28.17
2019-04-10T08:28:53.792Z,41.83
2019-04-10T08:31:25.522Z,25.60
2019-04-10T08:33:57.178Z,16.50
2019-04-10T08:36:29.678Z,19.80
2019-04-10T08:39:02.421Z,21.85
2019-04-10T08:41:35.138Z,19.65
2019-04-10T08:44:06.811Z,28.02
2019-04-10T08:46:38.427Z,25.60
2019-04-10T08:49:10.281Z,21.12
2019-04-10T08:51:41.880Z,24.63
2019-04-10T08:54:14.104Z,24.50
2019-04-10T08:56:46.980Z,17.90
2019-04-10T08:59:19.315Z,17.12
2019-04-10T09:01:50.845Z,18.52
2019-04-10T09:04:22.463Z,28.25
2019-04-10T09:06:54.338Z,27.75
2019-04-10T09:09:26.187Z,75.72
2019-04-10T09:11:57.946Z,41.92
2019-04-10T09:14:29.883Z,31.00
2019-04-10T09:17:02.819Z,36.15
2019-04-10T09:19:34.663Z,40.45
2019-04-10T09:22:06.415Z,51.30
2019-04-10T09:24:38.393Z,48.40
2019-04-10T09:27:10.956Z,44.85
2019-04-10T09:29:42.906Z,50.85
2019-04-10T09:32:14.972Z,69.92
2019-04-10T09:34:48.122Z,59.80
2019-04-10T09:37:20.132Z,38.67
2019-04-10T09:39:53.445Z,40.60
2019-04-10T09:42:25.634Z,35.90
2019-04-10T09:44:57.475Z,40.23
2019-04-10T09:47:30.316Z,38.70
2019-04-10T09:50:02.409Z,40.58
2019-04-10T09:52:35.621Z,36.42
2019-04-10T09:55:08.106Z,42.25
2019-04-10T09:57:40.665Z,35.63
2019-04-10T10:00:14.032Z,27.85
2019-04-10T10:02:47.432Z,38.78
2019-04-10T10:05:20.258Z,38.80
2019-04-10T10:07:54.468Z,37.15
2019-04-10T10:10:25.839Z,26.00
2019-04-10T10:12:57.552Z,34.38
2019-04-10T10:15:29.389Z,42.58
2019-04-10T10:18:01.456Z,36.58
2019-04-10T10:20:35.614Z,28.85
2019-04-10T10:23:07.567Z,44.25
2019-04-10T10:25:39.467Z,30.57
2019-04-10T10:28:11.848Z,32.75
2019-04-10T10:30:43.998Z,29.30
2019-04-10T10:33:15.721Z,29.70
2019-04-10T10:35:49.503Z,63.92
2019-04-10T10:38:21.454Z,32.03
2019-04-10T10:40:53.109Z,36.35
2019-04-10T10:43:25.179Z,29.12
2019-04-10T10:45:56.940Z,37.60
2019-04-10T10:48:29.579Z,50.90
2019-04-10T10:51:02.427Z,41.05
2019-04-10T10:53:34.595Z,27.07
2019-04-10T10:56:06.438Z,41.40
2019-04-10T10:58:38.075Z,38.30
2019-04-10T11:01:09.972Z,33.45
2019-04-10T11:03:42.570Z,25.25
2019-04-10T11:06:14.966Z,37.65
2019-04-10T11:08:47.842Z,21.70
2019-04-10T11:11:20.034Z,35.98
2019-04-10T11:13:51.739Z,29.10
2019-04-10T11:16:23.554Z,17.80
2019-04-10T11:18:55.209Z,13.38
2019-04-10T11:21:27.452Z,24.82
2019-04-10T11:24:01.022Z,40.83
2019-04-10T11:26:33.646Z,26.20
2019-04-10T11:29:05.713Z,18.55
2019-04-10T11:31:39.609Z,16.45
2019-04-10T11:34:11.481Z,16.17
2019-04-10T11:36:44.055Z,45.50
2019-04-10T11:39:23.371Z,20.82
2019-04-10T11:41:50.559Z,17.40
2019-04-10T11:44:22.298Z,13.03
2019-04-10T11:46:55.641Z,15.53
2019-04-10T11:49:29.534Z,8.50
2019-04-10T11:52:03.111Z,12.23
2019-04-10T11:54:40.359Z,10.68
2019-04-10T11:57:09.948Z,12.55
2019-04-10T11:59:41.257Z,14.03
2019-04-10T12:02:14.426Z,49.58
2019-04-10T12:04:53.876Z,10.05
2019-04-10T12:07:52.639Z,10.45
2019-04-10T12:12:27.893Z,11.68
2019-04-10T12:15:01.582Z,13.58
2019-04-10T12:17:35.998Z,11.63
2019-04-10T12:20:08.956Z,8.08
2019-04-10T12:22:40.755Z,13.98
2019-04-10T12:25:12.940Z,11.03
2019-04-10T12:27:45.347Z,59.63
2019-04-10T12:30:17.713Z,10.15
2019-04-10T12:32:49.369Z,13.25
2019-04-10T12:35:20.931Z,15.68
2019-04-10T12:38:02.254Z,10.23
2019-04-10T12:40:26.669Z,16.77
2019-04-10T12:42:58.809Z,10.78
2019-04-10T12:45:30.799Z,7.12
2019-04-10T12:48:02.652Z,16.95
2019-04-10T12:50:34.526Z,13.78
2019-04-10T12:53:07.331Z,18.87
2019-04-10T12:55:38.973Z,18.73
2019-04-10T12:58:17.012Z,17.40
2019-04-10T13:00:44.822Z,120.80
2019-04-10T13:03:16.798Z,28.73
2019-04-10T13:05:49.395Z,34.38
2019-04-10T13:08:28.807Z,33.67
2019-04-10T13:10:56.082Z,15.23
2019-04-10T13:13:28.622Z,14.73
2019-04-10T13:16:01.484Z,36.00
2019-04-10T13:18:32.967Z,26.77
2019-04-10T13:21:04.510Z,11.00
2019-04-10T13:23:37.001Z,63.02
2019-04-10T13:26:10.895Z,15.98
2019-04-10T13:28:43.467Z,19.00
2019-04-10T13:31:15.134Z,10.45
2019-04-10T13:33:46.941Z,25.48
2019-04-10T13:36:19.674Z,12.93
2019-04-10T13:38:51.225Z,27.40
2019-04-10T13:41:24.105Z,21.97
2019-04-10T13:43:55.756Z,35.65
2019-04-10T13:46:28.941Z,33.75
2019-04-10T13:49:01.869Z,11.73
2019-04-10T13:51:33.438Z,14.03
2019-04-10T13:54:06.249Z,20.32
2019-04-10T13:56:38.025Z,28.67
2019-04-10T13:59:10.961Z,36.38
2019-04-10T14:01:43.888Z,37.83
2019-04-10T14:04:16.658Z,29.32
2019-04-10T14:06:49.302Z,18.77
2019-04-10T14:09:34.407Z,53.08
2019-04-10T14:11:54.435Z,7.78
2019-04-10T14:14:26.721Z,2.62
2019-04-10T14:16:59.324Z,11.35
2019-04-10T14:19:31.869Z,7.95
2019-04-10T14:22:03.500Z,11.40
2019-04-10T14:24:42.851Z,13.28
2019-04-10T14:27:16.266Z,24.40
2019-04-10T14:29:49.083Z,24.13
2019-04-10T14:32:25.371Z,18.57
2019-04-10T14:34:57.119Z,20.32
2019-04-10T14:37:29.551Z,22.80
2019-04-10T14:40:02.150Z,21.52
2019-04-10T14:42:34.895Z,21.75
2019-04-10T14:45:09.042Z,22.20
2019-04-10T14:47:41.323Z,13.65
2019-04-10T14:50:13.685Z,42.90
2019-04-10T14:52:45.770Z,13.65
2019-04-10T14:55:20.299Z,18.92
2019-04-10T14:57:51.028Z,20.48
2019-04-10T15:00:36.964Z,16.37
2019-04-10T15:03:08.772Z,14.58
2019-04-10T15:05:47.789Z,21.70
2019-04-10T15:08:15.505Z,20.55
2019-04-10T15:10:47.426Z,16.07
2019-04-10T15:13:21.236Z,19.23
2019-04-10T15:15:52.569Z,20.82
2019-04-10T15:18:24.664Z,19.85
2019-04-10T15:20:58.571Z,19.17
2019-04-10T15:23:30.233Z,13.25
2019-04-10T15:26:02.187Z,11.28
2019-04-10T15:28:34.028Z,9.33
2019-04-10T15:31:06.845Z,12.63
2019-04-10T15:33:39.415Z,62.53
2019-04-10T15:36:11.578Z,11.00
2019-04-10T15:38:44.262Z,11.35
2019-04-10T15:41:16.925Z,10.60
2019-04-10T15:43:50.159Z,19.62
2019-04-10T15:46:21.662Z,9.23
2019-04-10T15:48:53.423Z,11.33
2019-04-10T15:51:25.274Z,14.58
2019-04-10T15:53:57.125Z,10.25
2019-04-10T15:56:29.710Z,13.60
2019-04-10T15:59:01.370Z,8.63
2019-04-10T16:01:33.274Z,10.10
2019-04-10T16:04:05.271Z,9.55
2019-04-10T16:06:37.589Z,10.65
2019-04-10T16:09:10.445Z,10.35
2019-04-10T16:11:47.172Z,8.33
2019-04-10T16:14:23.304Z,11.65
2019-04-10T16:17:09.009Z,12.20
2019-04-10T16:19:51.367Z,7.70
2019-04-10T16:22:31.209Z,13.85
2019-04-10T16:25:05.355Z,11.13
2019-04-10T16:27:41.293Z,10.90
2019-04-10T16:30:15.960Z,15.35
2019-04-10T16:32:48.589Z,100.53
2019-04-10T16:35:21.084Z,71.12
2019-04-10T16:37:53.800Z,17.80
2019-04-10T16:40:26.957Z,32.90
2019-04-10T16:42:59.353Z,22.05
2019-04-10T16:45:31.196Z,14.68
2019-04-10T16:48:03.135Z,19.25
2019-04-10T16:50:36.400Z,19.48
2019-04-10T16:53:09.627Z,22.30
2019-04-10T16:55:43.113Z,15.40
2019-04-10T16:58:15.859Z,10.03
2019-04-10T17:00:47.749Z,10.32
2019-04-10T17:03:20.118Z,12.75
2019-04-10T17:05:53.550Z,13.48
2019-04-10T17:08:25.287Z,11.90
2019-04-10T17:10:58.808Z,8.30
2019-04-10T17:13:30.818Z,9.10
2019-04-10T17:16:02.593Z,8.20
2019-04-10T17:18:35.038Z,7.65
2019-04-10T17:21:06.788Z,6.00
2019-04-10T17:23:38.700Z,6.95
2019-04-10T17:26:10.798Z,6.47
2019-04-10T17:28:42.782Z,6.92
2019-04-10T17:31:16.138Z,7.35
2019-04-10T17:33:50.107Z,4.87
2019-04-10T17:36:22.962Z,6.75
2019-04-10T17:38:55.228Z,12.15
2019-04-10T17:41:28.277Z,8.10
2019-04-10T17:44:02.045Z,10.53
2019-04-10T17:46:33.628Z,5.33
2019-04-10T17:49:05.789Z,5.65
2019-04-10T17:51:38.467Z,5.25
2019-04-10T17:54:11.777Z,6.20
2019-04-10T17:56:44.408Z,7.12
2019-04-10T17:59:16.273Z,5.35
2019-04-10T18:01:47.906Z,7.58
2019-04-10T18:04:20.076Z,7.08
2019-04-10T18:06:52.867Z,8.55
2019-04-10T18:09:26.108Z,7.45
2019-04-10T18:12:00.549Z,6.80
2019-04-10T18:14:31.345Z,7.70
2019-04-10T18:17:03.101Z,5.58
2019-04-10T18:19:34.959Z,15.18
2019-04-10T18:22:06.805Z,14.07
2019-04-10T18:24:38.376Z,7.97
2019-04-10T18:27:12.250Z,20.37
2019-04-10T18:29:45.283Z,9.25
2019-04-10T18:32:17.920Z,11.03
2019-04-10T18:34:50.040Z,8.05
2019-04-10T18:37:24.834Z,6.50
2019-04-10T18:39:54.943Z,6.60
2019-04-10T18:42:26.750Z,6.95
2019-04-10T18:44:59.494Z,5.80
2019-04-10T18:47:32.308Z,5.17
2019-04-10T18:50:05.614Z,5.03
2019-04-10T18:52:37.492Z,9.18
2019-04-10T18:55:09.279Z,5.22
2019-04-10T18:57:41.122Z,5.97
2019-04-10T19:00:15.766Z,10.75
2019-04-10T19:02:57.077Z,6.15
2019-04-10T19:05:31.906Z,10.18
2019-04-10T19:08:03.640Z,5.97
2019-04-10T19:10:36.774Z,9.33
2019-04-10T19:13:09.564Z,6.20
2019-04-10T19:15:41.746Z,4.75
2019-04-10T19:18:13.539Z,11.03
2019-04-10T19:20:45.097Z,9.93
2019-04-10T19:23:17.265Z,5.92
2019-04-10T19:25:49.181Z,6.00
2019-04-10T19:28:30.017Z,7.35
2019-04-10T19:31:12.835Z,17.00
2019-04-10T19:33:39.420Z,10.23
2019-04-10T19:36:11.976Z,8.18
2019-04-10T19:38:43.682Z,8.50
2019-04-10T19:41:25.210Z,8.10
2019-04-10T19:43:48.742Z,13.45
2019-04-10T19:46:21.558Z,7.03
2019-04-10T19:48:53.606Z,5.55
2019-04-10T19:51:25.900Z,7.37
2019-04-10T19:53:57.818Z,6.30
2019-04-10T19:56:30.678Z,8.98
2019-04-10T19:59:02.930Z,10.78
2019-04-10T20:01:34.535Z,9.03
2019-04-10T20:04:06.471Z,8.18
2019-04-10T20:06:38.607Z,7.45
2019-04-10T20:09:10.697Z,7.97
2019-04-10T20:11:48.633Z,9.75
2019-04-10T20:14:16.843Z,9.53
2019-04-10T20:16:49.383Z,7.55
2019-04-10T20:19:21.066Z,9.28
2019-04-10T20:21:52.768Z,6.33
2019-04-10T20:24:25.068Z,23.55
2019-04-10T20:26:56.901Z,7.83
2019-04-10T20:29:28.894Z,10.08
2019-04-10T20:32:01.649Z,7.50
2019-04-10T20:34:33.696Z,6.92
2019-04-10T20:37:09.258Z,8.70
2019-04-10T20:39:39.219Z,10.00
2019-04-10T20:42:11.007Z,9.30
2019-04-10T20:44:43.065Z,10.00
2019-04-10T20:47:15.764Z,17.67
2019-04-10T20:49:47.935Z,13.98
2019-04-10T20:52:19.993Z,16.62
2019-04-10T20:54:51.762Z,18.05
2019-04-10T20:57:23.781Z,21.90
2019-04-10T20:59:55.685Z,17.60
2019-04-10T21:02:28.519Z,34.40
2019-04-10T21:05:05.787Z,26.45
2019-04-10T21:07:33.924Z,34.65
2019-04-10T21:10:08.548Z,33.63
2019-04-10T21:12:40.314Z,22.75
2019-04-10T21:15:13.190Z,52.27
2019-04-10T21:17:44.850Z,34.63
2019-04-10T21:20:16.717Z,30.17
2019-04-10T21:22:49.346Z,20.12
2019-04-10T21:25:21.219Z,23.20
2019-04-10T21:27:54.655Z,23.40
2019-04-10T21:30:31.759Z,23.55
2019-04-10T21:33:12.133Z,20.70
2019-04-10T21:35:44.157Z,21.67
2019-04-10T21:38:15.815Z,19.73
2019-04-10T21:40:47.566Z,20.92
2019-04-10T21:43:20.281Z,19.55
2019-04-10T21:45:53.024Z,18.87
2019-04-10T21:48:24.985Z,19.60
2019-04-10T21:50:56.847Z,20.60
2019-04-10T21:53:31.669Z,22.42
2019-04-10T21:56:02.308Z,16.17
2019-04-10T21:58:34.529Z,17.62
2019-04-10T22:01:08.076Z,21.45
2019-04-10T22:03:39.841Z,16.40
2019-04-10T22:06:15.685Z,17.82
2019-04-10T22:08:54.811Z,17.42
2019-04-10T22:11:26.786Z,15.32
2019-04-10T22:13:58.742Z,14.60
2019-04-10T22:16:30.701Z,17.12
2019-04-10T22:19:03.740Z,17.95
2019-04-10T22:21:35.549Z,14.25
2019-04-10T22:24:07.404Z,16.35
2019-04-10T22:26:44.471Z,17.00
2019-04-10T22:29:15.530Z,13.58
2019-04-10T22:31:47.596Z,17.98
2019-04-10T22:34:19.206Z,18.45
2019-04-10T22:36:50.800Z,16.15
2019-04-10T22:39:23.081Z,17.05
2019-04-10T22:41:54.846Z,21.48
2019-04-10T22:44:34.748Z,13.05
2019-04-10T22:47:00.885Z,23.00
2019-04-10T22:49:32.877Z,13.10
2019-04-10T22:52:04.740Z,16.00
2019-04-10T22:54:36.647Z,15.80
2019-04-10T22:57:10.370Z,16.40
2019-04-10T22:59:42.485Z,19.10
2019-04-10T23:02:16.087Z,14.10
2019-04-10T23:04:47.819Z,17.75
2019-04-10T23:07:19.878Z,16.02
2019-04-10T23:09:52.578Z,14.38
2019-04-10T23:12:24.481Z,16.48
2019-04-10T23:14:55.968Z,13.95
2019-04-10T23:17:28.539Z,17.55
2019-04-10T23:20:00.697Z,20.72
2019-04-10T23:22:33.494Z,18.10
2019-04-10T23:25:07.972Z,15.72
2019-04-10T23:27:39.928Z,17.05
2019-04-10T23:30:13.490Z,15.03
2019-04-10T23:32:45.794Z,21.60
2019-04-10T23:35:19.018Z,21.27
2019-04-10T23:37:51.097Z,21.90
2019-04-10T23:40:23.082Z,23.38
2019-04-10T23:43:05.808Z,21.93
2019-04-10T23:45:29.459Z,19.73
2019-04-10T23:48:01.448Z,27.48
2019-04-10T23:50:34.413Z,24.15
2019-04-10T23:53:06.553Z,22.60
2019-04-10T23:55:38.578Z,20.88
2019-04-10T23:58:10.637Z,17.20
